Time;durP1;ratioP1;P1;durP2;ratioP2;P2;SDS_P1;SDS_P2;PMS_P1;PMS_P2;Temp;Humidity;BMP_temperature;BMP_pressure;BME280_temperature;BME280_humidity;BME280_pressure;Samples;Min_cycle;Max_cycle;Signal;HPM_P1;HPM_P2
2022/12/19 00:00:17;;;;;;;26.03;11.87;;;4.80;99.90;;;;;;5094830;28;20582;-62
2022/12/19 00:02:43;;;;;;;21.00;11.83;;;4.90;99.90;;;;;;5096857;28;20203;-64
2022/12/19 00:05:08;;;;;;;14.50;10.53;;;5.00;99.90;;;;;;5080488;28;20271;-63
2022/12/19 00:07:34;;;;;;;29.50;12.03;;;5.00;99.90;;;;;;5096578;28;20219;-63
2022/12/19 00:09:59;;;;;;;24.37;11.93;;;5.00;99.90;;;;;;5096827;28;20260;-62
2022/12/19 00:12:25;;;;;;;20.90;13.57;;;5.00;99.90;;;;;;5094717;28;20322;-61
2022/12/19 00:14:51;;;;;;;20.10;11.37;;;5.00;99.90;;;;;;5096515;28;20191;-61
2022/12/19 00:17:17;;;;;;;18.43;10.23;;;5.10;99.90;;;;;;5095497;28;20283;-62
2022/12/19 00:19:42;;;;;;;13.63;9.10;;;5.10;99.90;;;;;;5092762;28;20265;-62
2022/12/19 00:22:08;;;;;;;31.60;12.10;;;5.10;99.90;;;;;;5093273;28;20196;-61
2022/12/19 00:24:34;;;;;;;19.33;11.10;;;5.10;99.90;;;;;;5091426;28;20600;-62
2022/12/19 00:27:00;;;;;;;15.67;10.63;;;5.10;99.90;;;;;;5095449;28;20189;-61
2022/12/19 00:29:25;;;;;;;23.07;10.97;;;5.20;99.90;;;;;;5093481;28;20210;-62
2022/12/19 00:31:51;;;;;;;19.70;9.53;;;5.20;99.90;;;;;;5085548;28;20677;-62
2022/12/19 00:34:17;;;;;;;24.10;12.03;;;5.20;99.90;;;;;;5094926;28;20275;-61
2022/12/19 00:36:42;;;;;;;18.00;10.90;;;5.20;99.90;;;;;;5095039;28;20185;-62
2022/12/19 00:39:09;;;;;;;17.63;9.80;;;5.20;99.90;;;;;;5077050;28;20218;-62
2022/12/19 00:41:37;;;;;;;16.87;9.43;;;5.20;99.90;;;;;;5100128;28;20204;-63
2022/12/19 00:44:08;;;;;;;19.70;11.10;;;5.20;99.90;;;;;;5094472;28;20311;-63
2022/12/19 00:46:35;;;;;;;23.50;11.10;;;5.30;99.90;;;;;;5090526;28;20647;-63
2022/12/19 00:49:01;;;;;;;21.07;10.47;;;5.30;99.90;;;;;;5089853;28;20192;-62
2022/12/19 00:51:29;;;;;;;19.23;10.63;;;5.40;99.90;;;;;;5094869;28;20189;-61
2022/12/19 00:53:56;;;;;;;15.87;9.23;;;5.40;99.90;;;;;;5081194;28;20596;-65
2022/12/19 00:56:24;;;;;;;16.00;8.60;;;5.40;99.90;;;;;;5089050;28;20188;-62
2022/12/19 00:58:51;;;;;;;20.57;10.20;;;5.40;99.90;;;;;;5084213;28;20181;-62
2022/12/19 01:01:21;;;;;;;17.33;9.87;;;5.50;99.90;;;;;;5091549;28;20681;-63
2022/12/19 01:03:46;;;;;;;19.07;10.07;;;5.50;99.90;;;;;;5091670;28;20635;-63
2022/12/19 01:06:12;;;;;;;17.17;9.07;;;5.50;99.90;;;;;;5075931;28;20191;-63
2022/12/19 01:08:38;;;;;;;18.90;10.30;;;5.60;99.90;;;;;;5075780;28;20203;-63
2022/12/19 01:11:04;;;;;;;15.00;8.90;;;5.60;99.90;;;;;;5094384;28;20180;-63
2022/12/19 01:13:32;;;;;;;14.83;7.73;;;5.70;99.90;;;;;;5092594;28;20675;-62
2022/12/19 01:16:09;;;;;;;17.13;8.87;;;5.70;99.90;;;;;;5094463;28;20216;-63
2022/12/19 01:18:35;;;;;;;19.47;9.77;;;5.70;99.90;;;;;;5089466;28;20592;-64
2022/12/19 01:21:03;;;;;;;20.40;9.77;;;5.80;99.90;;;;;;5076350;28;20299;-62
2022/12/19 01:23:30;;;;;;;19.53;9.70;;;5.80;99.90;;;;;;5094057;28;20200;-63
2022/12/19 01:25:56;;;;;;;22.83;13.87;;;5.80;99.90;;;;;;5081673;28;20264;-62
2022/12/19 01:28:22;;;;;;;24.57;12.83;;;5.90;99.90;;;;;;5086580;28;20191;-63
2022/12/19 01:30:48;;;;;;;30.73;12.83;;;5.90;99.90;;;;;;5109447;28;20208;-64
2022/12/19 01:33:16;;;;;;;26.50;11.33;;;6.00;99.90;;;;;;5077991;28;20197;-64
2022/12/19 01:35:42;;;;;;;18.63;10.67;;;6.00;99.90;;;;;;5087913;28;20276;-64
2022/12/19 01:38:14;;;;;;;16.43;9.07;;;6.10;99.90;;;;;;5096063;28;20194;-63
2022/12/19 01:40:39;;;;;;;14.40;9.03;;;6.10;99.90;;;;;;5090122;28;20212;-64
2022/12/19 01:43:11;;;;;;;13.33;8.67;;;6.10;99.90;;;;;;5089436;28;20643;-63
2022/12/19 01:45:37;;;;;;;17.10;7.73;;;6.20;99.90;;;;;;5091913;28;20188;-63
2022/12/19 01:48:06;;;;;;;18.37;9.63;;;6.30;99.90;;;;;;5092993;28;20547;-62
2022/12/19 01:50:43;;;;;;;13.87;8.20;;;6.30;99.90;;;;;;5093300;28;20193;-63
2022/12/19 01:53:11;;;;;;;12.13;7.47;;;6.30;99.90;;;;;;5082720;28;20278;-63
2022/12/19 01:55:39;;;;;;;14.43;7.63;;;6.30;99.90;;;;;;5078857;28;20679;-63
2022/12/19 01:58:06;;;;;;;13.60;7.07;;;6.30;99.90;;;;;;5080064;28;20271;-62
2022/12/19 02:00:33;;;;;;;17.13;9.23;;;6.40;99.90;;;;;;5082417;28;20213;-63
2022/12/19 02:03:22;;;;;;;16.30;8.47;;;6.40;99.90;;;;;;5087113;28;20577;-62
2022/12/19 02:05:48;;;;;;;13.90;8.30;;;6.50;99.90;;;;;;5076386;28;20199;-62
2022/12/19 02:08:15;;;;;;;13.93;8.30;;;6.50;99.90;;;;;;5073467;28;20196;-66
2022/12/19 02:10:41;;;;;;;12.77;7.13;;;6.60;99.90;;;;;;5083695;28;20190;-63
2022/12/19 02:13:07;;;;;;;11.63;7.63;;;6.70;99.90;;;;;;5092746;28;20271;-63
2022/12/19 02:16:02;;;;;;;20.33;9.53;;;6.70;99.90;;;;;;5071531;28;20212;-63
2022/12/19 02:18:30;;;;;;;20.17;9.37;;;6.80;99.90;;;;;;5059610;28;20224;-63
2022/12/19 02:21:01;;;;;;;20.80;8.83;;;6.80;99.90;;;;;;5091564;28;20269;-61
2022/12/19 02:23:27;;;;;;;9.20;6.60;;;6.90;99.90;;;;;;5090484;28;20606;-62
2022/12/19 02:26:02;;;;;;;10.40;7.07;;;6.90;99.90;;;;;;5090817;28;20248;-62
2022/12/19 02:28:55;;;;;;;14.53;9.33;;;6.90;99.90;;;;;;5091277;28;20207;-62
2022/12/19 02:31:52;;;;;;;22.37;11.37;;;6.90;99.90;;;;;;5092572;28;20189;-62
2022/12/19 02:34:30;;;;;;;14.03;8.83;;;7.00;99.90;;;;;;5084954;28;20188;-61
2022/12/19 02:37:12;;;;;;;12.57;8.33;;;7.00;99.90;;;;;;5087701;28;20189;-62
2022/12/19 02:39:49;;;;;;;15.30;8.77;;;7.10;99.90;;;;;;5090911;28;20227;-61
2022/12/19 02:42:28;;;;;;;12.37;8.40;;;7.00;99.90;;;;;;5089685;28;20245;-63
2022/12/19 02:44:55;;;;;;;18.20;9.50;;;7.00;99.90;;;;;;5086269;28;20175;-62
2022/12/19 02:47:21;;;;;;;22.77;11.37;;;7.10;99.90;;;;;;5088204;28;20242;-62
2022/12/19 02:49:47;;;;;;;18.37;10.80;;;7.20;99.90;;;;;;5092682;28;20191;-62
2022/12/19 02:52:19;;;;;;;12.80;9.27;;;7.10;99.90;;;;;;5083601;28;20586;-62
2022/12/19 02:54:50;;;;;;;15.50;7.83;;;7.00;99.90;;;;;;5088264;28;20185;-61
2022/12/19 02:57:27;;;;;;;10.63;7.50;;;7.00;99.90;;;;;;5087526;28;20187;-62
2022/12/19 03:00:28;;;;;;;13.67;7.67;;;7.00;99.90;;;;;;5086563;28;20181;-62
2022/12/19 03:02:58;;;;;;;13.63;8.53;;;7.10;99.90;;;;;;5013445;28;20216;-60
2022/12/19 03:05:57;;;;;;;12.47;7.67;;;7.10;99.90;;;;;;5080119;28;20216;-62
2022/12/19 03:08:49;;;;;;;17.83;9.60;;;7.10;99.90;;;;;;5091382;28;20643;-62
2022/12/19 03:11:15;;;;;;;19.07;10.47;;;7.10;99.90;;;;;;5092510;28;20192;-62
2022/12/19 03:13:55;;;;;;;23.80;11.70;;;7.20;99.90;;;;;;5092118;28;20279;-62
2022/12/19 03:16:21;;;;;;;20.33;11.20;;;7.20;99.90;;;;;;5091969;28;20191;-62
2022/12/19 03:18:48;;;;;;;17.53;11.13;;;7.10;99.90;;;;;;5079397;28;20207;-62
2022/12/19 03:21:40;;;;;;;23.97;12.57;;;7.20;99.90;;;;;;5070126;28;20231;-62
2022/12/19 03:24:09;;;;;;;23.67;12.67;;;7.20;99.90;;;;;;5085320;28;20217;-62
2022/12/19 03:26:57;;;;;;;19.03;9.93;;;7.20;99.90;;;;;;5090098;28;20188;-62
2022/12/19 03:29:35;;;;;;;17.53;10.27;;;7.20;99.90;;;;;;5088360;28;20238;-63
2022/12/19 03:32:06;;;;;;;20.23;11.03;;;7.20;99.90;;;;;;5087157;28;20192;-64
2022/12/19 03:34:38;;;;;;;14.80;9.03;;;7.20;99.90;;;;;;5074284;28;20192;-63
2022/12/19 03:37:07;;;;;;;18.97;11.00;;;7.20;99.90;;;;;;5079229;28;20647;-62
2022/12/19 03:39:33;;;;;;;23.57;11.13;;;7.30;99.90;;;;;;5092022;28;20188;-63
2022/12/19 03:44:48;;;;;;;18.50;9.10;;;7.30;99.90;;;;;;5087625;28;20211;-63
2022/12/19 03:47:19;;;;;;;17.70;9.60;;;7.30;99.90;;;;;;5091247;28;20180;-63
2022/12/19 03:49:46;;;;;;;17.13;8.90;;;7.30;99.90;;;;;;5092184;28;20177;-63
2022/12/19 03:52:20;;;;;;;16.93;10.17;;;7.30;99.90;;;;;;5090797;28;20231;-62
2022/12/19 03:55:14;;;;;;;14.77;8.37;;;7.40;99.90;;;;;;5088296;28;20177;-62
2022/12/19 03:57:53;;;;;;;15.17;7.93;;;7.40;99.90;;;;;;5089499;28;20280;-62
2022/12/19 04:00:19;;;;;;;22.90;11.03;;;7.50;99.90;;;;;;5083592;28;20215;-62
2022/12/19 04:02:48;;;;;;;16.20;9.07;;;7.50;99.90;;;;;;5085056;28;20204;-62
2022/12/19 04:05:20;;;;;;;15.07;8.27;;;7.60;99.90;;;;;;5094262;28;20623;-62
2022/12/19 04:07:47;;;;;;;16.67;8.97;;;7.50;99.90;;;;;;5092656;28;20191;-63
2022/12/19 04:10:17;;;;;;;16.83;7.47;;;7.50;99.90;;;;;;5094189;28;20578;-61
2022/12/19 04:13:11;;;;;;;15.87;8.30;;;7.60;99.90;;;;;;5093925;28;20532;-65
2022/12/19 04:16:12;;;;;;;12.37;9.13;;;7.60;99.90;;;;;;5082163;28;20176;-63
2022/12/19 04:18:40;;;;;;;16.60;8.03;;;7.70;99.90;;;;;;5102274;28;20184;-62
2022/12/19 04:21:24;;;;;;;17.57;8.60;;;7.70;99.90;;;;;;5111391;28;20228;-62
2022/12/19 04:24:08;;;;;;;19.40;9.57;;;7.70;99.90;;;;;;5093099;28;20188;-63
2022/12/19 04:26:37;;;;;;;12.87;8.57;;;7.80;99.90;;;;;;5093263;28;20566;-63
2022/12/19 04:29:05;;;;;;;19.97;9.90;;;7.80;99.90;;;;;;5093073;28;20177;-63
2022/12/19 04:31:31;;;;;;;21.53;11.87;;;7.80;99.90;;;;;;5092003;28;20673;-62
2022/12/19 04:33:56;;;;;;;31.53;14.13;;;7.90;99.90;;;;;;5076986;28;20180;-63
2022/12/19 04:36:24;;;;;;;18.73;11.60;;;7.90;99.90;;;;;;5067156;28;20187;-62
2022/12/19 04:38:50;;;;;;;23.50;13.90;;;7.90;99.90;;;;;;5093937;28;20191;-61
2022/12/19 04:41:16;;;;;;;25.10;14.03;;;7.90;99.90;;;;;;5091292;28;20205;-63
2022/12/19 04:43:41;;;;;;;20.83;12.07;;;8.00;99.90;;;;;;5092987;28;20585;-65
2022/12/19 04:46:07;;;;;;;15.50;9.50;;;8.00;99.90;;;;;;5094456;28;20659;-63
2022/12/19 04:48:34;;;;;;;24.73;11.10;;;8.00;99.90;;;;;;5093771;28;20189;-61
2022/12/19 04:51:00;;;;;;;18.20;9.13;;;8.00;99.90;;;;;;5090726;28;20330;-63
2022/12/19 04:53:26;;;;;;;13.87;9.03;;;8.00;99.90;;;;;;5093059;28;20222;-63
2022/12/19 04:56:00;;;;;;;18.13;9.87;;;8.10;99.90;;;;;;5093024;28;20219;-63
2022/12/19 04:58:26;;;;;;;18.47;10.77;;;8.10;99.90;;;;;;5081961;28;20177;-61
2022/12/19 05:00:51;;;;;;;21.93;12.53;;;8.10;99.90;;;;;;5072788;28;20213;-63
2022/12/19 05:03:17;;;;;;;28.20;13.77;;;8.20;99.90;;;;;;5092311;28;20189;-62
2022/12/19 05:05:42;;;;;;;16.17;9.87;;;8.20;99.90;;;;;;5092588;28;20185;-61
2022/12/19 05:08:08;;;;;;;15.53;8.90;;;8.20;99.90;;;;;;5081796;28;20189;-63
2022/12/19 05:10:35;;;;;;;19.70;10.37;;;8.20;99.90;;;;;;5093498;28;20192;-62
2022/12/19 05:13:01;;;;;;;17.73;11.47;;;8.20;99.90;;;;;;5084581;28;20189;-63
2022/12/19 05:15:26;;;;;;;10.00;7.00;;;8.30;99.90;;;;;;5079835;28;20180;-63
2022/12/19 05:17:52;;;;;;;17.87;9.60;;;8.30;99.90;;;;;;5089577;28;20554;-63
2022/12/19 05:20:18;;;;;;;9.43;7.00;;;8.30;99.90;;;;;;5080812;28;20204;-62
2022/12/19 05:22:43;;;;;;;16.13;8.87;;;8.30;99.90;;;;;;5092115;28;20213;-63
2022/12/19 05:25:09;;;;;;;13.63;8.13;;;8.30;99.90;;;;;;5087853;28;20254;-62
2022/12/19 05:27:35;;;;;;;17.73;10.17;;;8.30;99.90;;;;;;5085143;28;20207;-63
2022/12/19 05:30:01;;;;;;;18.23;11.50;;;8.40;99.90;;;;;;5088486;28;20217;-62
2022/12/19 05:32:30;;;;;;;20.20;10.23;;;8.50;99.90;;;;;;5090953;28;20181;-62
2022/12/19 05:34:56;;;;;;;14.57;7.97;;;8.40;99.90;;;;;;5081425;28;20677;-62
2022/12/19 05:37:22;;;;;;;18.37;10.60;;;8.40;99.90;;;;;;5092058;28;20184;-63
2022/12/19 05:39:47;;;;;;;18.43;9.60;;;8.40;99.90;;;;;;5074359;28;20548;-64
2022/12/19 05:42:13;;;;;;;10.97;7.63;;;8.40;99.90;;;;;;5087715;28;20308;-63
2022/12/19 05:44:38;;;;;;;20.97;9.63;;;8.50;99.90;;;;;;5092348;28;20224;-62
2022/12/19 05:47:04;;;;;;;12.13;8.30;;;8.50;99.90;;;;;;5091718;28;20191;-62
2022/12/19 05:49:31;;;;;;;15.60;8.23;;;8.50;99.90;;;;;;5085785;28;20683;-62
2022/12/19 05:51:56;;;;;;;23.17;13.23;;;8.60;99.90;;;;;;5082360;28;20193;-62
2022/12/19 05:54:22;;;;;;;28.00;14.83;;;8.60;99.90;;;;;;5092235;28;20192;-62
2022/12/19 05:56:48;;;;;;;15.77;9.20;;;8.60;99.90;;;;;;5088528;28;20188;-62
2022/12/19 05:59:13;;;;;;;19.80;11.53;;;8.50;99.90;;;;;;5063177;28;20185;-62
2022/12/19 06:01:39;;;;;;;9.87;7.37;;;8.50;99.90;;;;;;5089707;28;20576;-62
2022/12/19 06:04:06;;;;;;;15.80;9.17;;;8.40;99.90;;;;;;5091707;28;20195;-62
2022/12/19 06:06:32;;;;;;;9.20;6.63;;;8.50;99.90;;;;;;5074922;28;20242;-62
2022/12/19 06:08:58;;;;;;;9.30;6.30;;;8.60;99.90;;;;;;5089153;28;20193;-62
2022/12/19 06:11:25;;;;;;;13.60;7.80;;;8.60;99.90;;;;;;5088185;28;20527;-63
2022/12/19 06:13:51;;;;;;;8.83;5.90;;;8.60;99.90;;;;;;5091207;28;20188;-62
2022/12/19 06:16:19;;;;;;;10.70;7.30;;;8.60;99.90;;;;;;5088329;28;20188;-63
2022/12/19 06:18:46;;;;;;;8.87;6.23;;;8.60;99.90;;;;;;5105049;28;20230;-63
2022/12/19 06:21:22;;;;;;;12.57;7.30;;;8.50;99.90;;;;;;5085796;28;20675;-63
2022/12/19 06:23:48;;;;;;;9.90;7.17;;;8.60;99.90;;;;;;5091364;28;20204;-63
2022/12/19 06:26:16;;;;;;;8.00;6.17;;;8.70;99.90;;;;;;5073195;28;20632;-62
2022/12/19 06:28:42;;;;;;;8.93;6.10;;;8.70;99.90;;;;;;5092889;28;20177;-63
2022/12/19 06:31:09;;;;;;;9.87;6.97;;;8.70;99.90;;;;;;5089307;28;20192;-63
2022/12/19 06:33:35;;;;;;;9.03;6.13;;;8.70;99.90;;;;;;5086202;28;20184;-62
2022/12/19 06:36:06;;;;;;;7.87;5.37;;;8.70;99.90;;;;;;5092252;28;20188;-62
2022/12/19 06:38:33;;;;;;;7.83;6.13;;;8.70;99.90;;;;;;5092157;28;20190;-63
2022/12/19 06:43:43;;;;;;;9.23;6.57;;;8.80;99.90;;;;;;5084473;28;20196;-63
2022/12/19 06:46:09;;;;;;;8.47;5.93;;;8.80;99.90;;;;;;5085588;28;20188;-64
2022/12/19 06:48:35;;;;;;;9.80;5.87;;;8.80;99.90;;;;;;5090546;28;20699;-62
2022/12/19 06:51:01;;;;;;;8.40;6.20;;;8.80;99.90;;;;;;5092304;28;20264;-61
2022/12/19 06:53:27;;;;;;;10.50;6.47;;;8.90;99.90;;;;;;5080472;28;20598;-62
2022/12/19 06:55:55;;;;;;;9.43;6.27;;;8.90;99.90;;;;;;5084940;28;20242;-63
2022/12/19 06:58:20;;;;;;;8.83;5.90;;;8.80;99.90;;;;;;5082213;28;20215;-62
2022/12/19 07:00:46;;;;;;;9.60;5.73;;;8.90;99.90;;;;;;5082861;28;20247;-63
2022/12/19 07:03:15;;;;;;;7.30;6.00;;;8.90;99.90;;;;;;5104325;28;20632;-62
2022/12/19 07:05:40;;;;;;;7.40;5.27;;;8.90;99.90;;;;;;5085128;28;20208;-62
2022/12/19 07:08:09;;;;;;;7.77;5.33;;;9.00;99.90;;;;;;5086478;28;20224;-62
2022/12/19 07:10:35;;;;;;;7.63;5.63;;;9.00;99.90;;;;;;5092279;28;20184;-62
2022/12/19 07:13:01;;;;;;;11.27;6.93;;;9.00;99.90;;;;;;5090376;28;20193;-62
2022/12/19 07:15:28;;;;;;;11.73;7.60;;;9.00;99.90;;;;;;5088508;28;20692;-62
2022/12/19 07:17:54;;;;;;;13.77;8.50;;;9.10;99.90;;;;;;5090146;28;20561;-62
2022/12/19 07:20:20;;;;;;;15.00;8.77;;;9.20;99.90;;;;;;5077438;28;20213;-62
2022/12/19 07:22:47;;;;;;;14.53;7.93;;;9.30;99.90;;;;;;5089538;28;20204;-62
2022/12/19 07:25:13;;;;;;;19.50;12.23;;;9.40;99.90;;;;;;5085917;28;20682;-62
2022/12/19 07:27:39;;;;;;;27.83;12.47;;;9.20;99.90;;;;;;5092015;28;20626;-61
2022/12/19 07:30:06;;;;;;;10.00;8.00;;;9.30;99.90;;;;;;5092338;28;20284;-61
2022/12/19 07:32:32;;;;;;;9.13;6.13;;;9.30;99.90;;;;;;5088525;28;20279;-61
2022/12/19 07:34:58;;;;;;;10.17;7.93;;;9.00;99.90;;;;;;5091458;28;20334;-61
2022/12/19 07:37:24;;;;;;;9.57;7.00;;;9.00;99.90;;;;;;5094906;28;20187;-62
2022/12/19 07:39:51;;;;;;;8.60;5.80;;;9.10;99.90;;;;;;5095192;28;20263;-63
2022/12/19 07:42:18;;;;;;;15.13;9.17;;;9.00;99.90;;;;;;5090435;28;20224;-61
2022/12/19 07:44:44;;;;;;;17.63;9.33;;;9.00;99.90;;;;;;5095863;28;20272;-64
2022/12/19 07:47:09;;;;;;;16.97;9.47;;;9.00;99.90;;;;;;5088779;28;20275;-62
2022/12/19 07:49:35;;;;;;;9.23;6.37;;;9.00;99.90;;;;;;5094477;28;20223;-65
2022/12/19 07:52:01;;;;;;;12.87;7.93;;;9.00;99.90;;;;;;5093254;28;20274;-61
2022/12/19 07:54:27;;;;;;;10.03;6.20;;;9.10;99.90;;;;;;5094306;28;20181;-62
2022/12/19 07:56:52;;;;;;;8.97;6.23;;;9.10;99.90;;;;;;5090575;28;20212;-62
2022/12/19 07:59:18;;;;;;;9.80;7.40;;;9.00;99.90;;;;;;5089363;28;20195;-62
2022/12/19 08:01:44;;;;;;;15.27;9.73;;;9.10;99.90;;;;;;5107918;28;20295;-62
2022/12/19 08:04:09;;;;;;;15.20;8.27;;;9.00;99.90;;;;;;5098571;28;20197;-62
2022/12/19 08:06:35;;;;;;;15.87;9.87;;;9.20;99.90;;;;;;5093748;28;20201;-62
2022/12/19 08:09:01;;;;;;;14.03;8.90;;;9.20;99.90;;;;;;5092440;28;20276;-62
2022/12/19 08:11:28;;;;;;;8.17;5.37;;;9.30;99.90;;;;;;5089352;28;20284;-62
2022/12/19 08:13:55;;;;;;;15.17;8.90;;;9.40;99.90;;;;;;5084862;28;20189;-62
2022/12/19 08:16:21;;;;;;;11.97;9.07;;;9.40;99.90;;;;;;5089974;28;20189;-61
2022/12/19 08:18:47;;;;;;;9.10;6.20;;;9.40;99.90;;;;;;5089984;28;20196;-62
2022/12/19 08:21:13;;;;;;;7.67;5.63;;;9.50;99.90;;;;;;5097876;28;20220;-61
2022/12/19 08:23:39;;;;;;;6.83;4.73;;;9.50;99.90;;;;;;5091830;28;20570;-61
2022/12/19 08:26:08;;;;;;;12.97;6.70;;;9.50;99.90;;;;;;5093848;28;20200;-61
2022/12/19 08:28:35;;;;;;;9.63;6.53;;;9.50;99.90;;;;;;5094071;28;20631;-61
2022/12/19 08:31:06;;;;;;;6.53;5.37;;;9.40;99.90;;;;;;5087643;28;20190;-61
2022/12/19 08:33:31;;;;;;;7.70;4.97;;;9.50;99.90;;;;;;5080832;28;20208;-61
2022/12/19 08:35:57;;;;;;;8.57;5.60;;;9.50;99.90;;;;;;5094771;28;20269;-62
2022/12/19 08:38:22;;;;;;;5.30;4.80;;;9.50;99.90;;;;;;5093780;28;20181;-61
2022/12/19 08:40:53;;;;;;;7.60;5.20;;;9.50;99.90;;;;;;5092717;28;20209;-61
2022/12/19 08:43:19;;;;;;;6.00;4.50;;;9.60;99.90;;;;;;5075076;28;20329;-61
2022/12/19 08:45:50;;;;;;;5.43;4.93;;;9.60;99.90;;;;;;5090746;28;20181;-61
2022/12/19 08:48:16;;;;;;;6.73;5.43;;;9.60;99.90;;;;;;5097147;28;20239;-61
2022/12/19 08:50:53;;;;;;;6.77;5.70;;;9.60;99.90;;;;;;5091383;28;20301;-62
2022/12/19 08:53:19;;;;;;;5.33;4.27;;;9.60;99.90;;;;;;5080368;28;20254;-62
2022/12/19 08:55:45;;;;;;;6.33;5.33;;;9.60;99.90;;;;;;5091092;28;20193;-61
2022/12/19 08:58:12;;;;;;;6.30;4.73;;;9.60;99.90;;;;;;5089195;28;20647;-62
2022/12/19 09:00:37;;;;;;;5.00;4.60;;;9.60;99.90;;;;;;5092907;28;20629;-61
2022/12/19 09:03:03;;;;;;;7.17;5.37;;;9.70;99.90;;;;;;5092942;28;20267;-62
2022/12/19 09:05:29;;;;;;;8.23;6.07;;;9.70;99.90;;;;;;5090496;28;20638;-63
2022/12/19 09:07:55;;;;;;;5.17;4.23;;;9.70;99.90;;;;;;5093177;28;20188;-62
2022/12/19 09:10:21;;;;;;;9.37;5.60;;;9.80;99.90;;;;;;5093527;28;20212;-62
2022/12/19 09:12:46;;;;;;;6.07;4.23;;;9.80;99.90;;;;;;5093897;28;20204;-62
2022/12/19 09:15:12;;;;;;;5.00;4.43;;;9.90;99.90;;;;;;5068786;28;20753;-61
2022/12/19 09:17:38;;;;;;;7.90;4.33;;;9.90;99.90;;;;;;5071712;28;20208;-61
2022/12/19 09:20:04;;;;;;;7.13;4.77;;;9.90;99.90;;;;;;5065380;28;20224;-61
2022/12/19 09:22:30;;;;;;;7.00;4.60;;;9.90;99.90;;;;;;5074169;28;20197;-61
2022/12/19 09:24:56;;;;;;;6.07;4.23;;;9.90;99.90;;;;;;5083563;28;20184;-62
2022/12/19 09:27:22;;;;;;;4.47;4.03;;;9.90;99.90;;;;;;5093398;28;20635;-61
2022/12/19 09:29:48;;;;;;;6.90;4.07;;;10.00;99.90;;;;;;5093060;28;20185;-60
2022/12/19 09:32:13;;;;;;;4.50;3.77;;;9.90;99.90;;;;;;5092567;28;20203;-62
2022/12/19 09:34:39;;;;;;;7.90;4.30;;;9.80;99.90;;;;;;5093314;28;20204;-63
2022/12/19 09:37:10;;;;;;;6.20;4.00;;;9.80;99.90;;;;;;5103338;28;20215;-63
2022/12/19 09:39:36;;;;;;;5.63;4.00;;;9.80;99.90;;;;;;5093732;28;20180;-63
2022/12/19 09:42:07;;;;;;;6.33;5.20;;;9.70;99.90;;;;;;5065926;28;20208;-62
2022/12/19 09:44:51;;;;;;;7.63;5.40;;;9.70;99.90;;;;;;5092744;28;20265;-62
2022/12/19 09:47:20;;;;;;;10.57;5.27;;;9.70;99.90;;;;;;5093344;28;20220;-61
2022/12/19 09:49:47;;;;;;;6.63;5.33;;;9.60;99.90;;;;;;5081520;28;20272;-62
2022/12/19 09:52:16;;;;;;;5.70;5.10;;;9.70;99.90;;;;;;5102097;28;20196;-62
2022/12/19 09:55:23;;;;;;;5.60;4.33;;;9.60;99.90;;;;;;5082090;28;20189;-62
2022/12/19 09:58:15;;;;;;;11.17;5.53;;;9.60;99.90;;;;;;5089995;28;20192;-63
2022/12/19 10:00:53;;;;;;;8.60;5.43;;;9.50;99.90;;;;;;5071398;28;20220;-62
2022/12/19 10:03:25;;;;;;;5.57;5.03;;;9.50;99.90;;;;;;5092350;28;20188;-62
2022/12/19 10:05:59;;;;;;;5.60;3.87;;;9.50;99.90;;;;;;5091907;28;20216;-62
2022/12/19 10:08:30;;;;;;;5.80;4.63;;;9.50;99.90;;;;;;5091709;28;20191;-62
2022/12/19 10:11:13;;;;;;;7.53;5.27;;;9.60;99.90;;;;;;5093411;28;20180;-62
2022/12/19 10:14:03;;;;;;;9.37;6.13;;;9.60;99.90;;;;;;5083359;28;20185;-62
2022/12/19 10:16:35;;;;;;;10.77;6.23;;;9.60;99.90;;;;;;5092646;28;20216;-62
2022/12/19 10:19:13;;;;;;;7.23;5.17;;;9.70;99.90;;;;;;5093059;28;20217;-62
2022/12/19 10:21:57;;;;;;;8.90;5.20;;;9.70;99.90;;;;;;5074744;28;20234;-62
2022/12/19 10:24:49;;;;;;;7.13;4.77;;;9.70;99.90;;;;;;5103573;28;20554;-62
2022/12/19 10:27:36;;;;;;;5.63;4.53;;;9.70;99.90;;;;;;5092435;28;20180;-63
2022/12/19 10:30:17;;;;;;;10.57;5.80;;;9.80;99.90;;;;;;5088259;28;20191;-62
2022/12/19 10:33:10;;;;;;;7.60;5.40;;;9.80;99.90;;;;;;5085927;28;20264;-62
2022/12/19 10:35:44;;;;;;;8.33;5.43;;;9.80;99.90;;;;;;5092314;28;20723;-62
2022/12/19 10:38:49;;;;;;;5.13;4.63;;;9.90;99.90;;;;;;5089024;28;20196;-62
2022/12/19 10:41:23;;;;;;;6.67;5.10;;;10.00;99.90;;;;;;5033706;28;20281;-62
2022/12/19 10:43:57;;;;;;;5.83;4.50;;;10.10;99.90;;;;;;5105202;28;20534;-62
2022/12/19 10:46:38;;;;;;;10.33;4.83;;;10.20;99.90;;;;;;5085004;28;20588;-62
2022/12/19 10:49:33;;;;;;;6.80;4.40;;;10.30;99.90;;;;;;5088159;28;20192;-62
2022/12/19 10:52:03;;;;;;;9.17;5.13;;;10.40;99.90;;;;;;5073855;28;20215;-62
2022/12/19 10:54:38;;;;;;;6.23;4.33;;;10.40;99.90;;;;;;5099821;28;20638;-62
2022/12/19 10:57:23;;;;;;;5.70;3.90;;;10.50;99.90;;;;;;5092275;28;20188;-64
2022/12/19 11:00:00;;;;;;;6.00;4.00;;;10.60;99.90;;;;;;5082902;28;21765;-61
2022/12/19 11:02:44;;;;;;;6.27;4.27;;;10.60;99.90;;;;;;5089948;28;20224;-61
2022/12/19 11:05:30;;;;;;;5.20;4.00;;;10.60;99.90;;;;;;5090819;28;20177;-60
2022/12/19 11:08:03;;;;;;;4.33;3.53;;;10.70;99.90;;;;;;5086469;28;20176;-62
2022/12/19 11:10:47;;;;;;;5.53;4.40;;;10.80;99.90;;;;;;5081826;28;20177;-62
2022/12/19 11:13:22;;;;;;;3.60;3.30;;;10.90;99.90;;;;;;5085081;28;20189;-62
2022/12/19 11:15:50;;;;;;;4.93;3.25;;;11.00;99.90;;;;;;5092115;28;20179;-62
2022/12/19 11:18:16;;;;;;;5.43;3.22;;;11.00;99.90;;;;;;5090630;28;20184;-62
2022/12/19 11:20:56;;;;;;;5.20;3.47;;;11.10;99.90;;;;;;5091206;28;20197;-62
2022/12/19 11:23:23;;;;;;;6.15;3.15;;;11.20;99.90;;;;;;5091722;28;20204;-63
2022/12/19 11:26:00;;;;;;;6.28;3.20;;;11.30;99.90;;;;;;5090622;28;20192;-62
2022/12/19 11:28:35;;;;;;;3.20;2.90;;;11.40;99.90;;;;;;5090416;28;20241;-62
2022/12/19 11:31:05;;;;;;;5.95;3.60;;;11.40;99.90;;;;;;5091492;28;20196;-62
2022/12/19 11:33:31;;;;;;;6.13;3.92;;;11.50;99.90;;;;;;5087041;28;20187;-63
2022/12/19 11:35:59;;;;;;;2.47;2.30;;;11.60;99.90;;;;;;5091872;28;20189;-63
2022/12/19 11:38:52;;;;;;;3.42;3.00;;;11.60;99.90;;;;;;5092165;28;20185;-62
2022/12/19 11:41:31;;;;;;;4.13;3.17;;;11.60;99.90;;;;;;5083517;28;20274;-61
2022/12/19 11:44:10;;;;;;;5.45;3.58;;;11.70;99.90;;;;;;5089978;28;20181;-62
2022/12/19 11:46:58;;;;;;;5.20;3.42;;;11.60;99.90;;;;;;5092006;28;20366;-61
2022/12/19 11:49:45;;;;;;;4.35;3.13;;;11.80;99.90;;;;;;5088440;28;20507;-63
2022/12/19 11:53:01;;;;;;;3.50;2.85;;;11.90;99.90;;;;;;5085725;28;20639;-62
2022/12/19 11:55:44;;;;;;;4.68;3.35;;;11.90;99.90;;;;;;5084396;28;20230;-62
2022/12/19 11:58:11;;;;;;;2.80;2.60;;;11.90;99.90;;;;;;5089330;28;20677;-62
2022/12/19 12:00:48;;;;;;;3.58;3.25;;;11.90;99.90;;;;;;5082525;28;20211;-63
2022/12/19 12:03:25;;;;;;;4.30;3.90;;;12.00;99.90;;;;;;5085456;28;20188;-63
2022/12/19 12:05:54;;;;;;;4.55;3.80;;;12.10;99.90;;;;;;5091496;28;20230;-62
2022/12/19 12:08:53;;;;;;;4.40;3.63;;;12.00;99.90;;;;;;5085629;28;20248;-63
2022/12/19 12:11:25;;;;;;;7.18;3.10;;;12.10;99.90;;;;;;5091511;28;20195;-64
2022/12/19 12:14:00;;;;;;;3.03;2.63;;;12.00;99.90;;;;;;5093090;28;20180;-64
2022/12/19 12:16:56;;;;;;;4.45;3.60;;;12.00;99.90;;;;;;5087600;28;20185;-63
2022/12/19 12:20:00;;;;;;;3.40;3.10;;;11.90;99.90;;;;;;5096052;28;20204;-63
2022/12/19 12:22:31;;;;;;;4.70;3.80;;;11.90;99.90;;;;;;5081405;28;20239;-64
2022/12/19 12:25:15;;;;;;;5.20;2.80;;;11.80;99.90;;;;;;5090732;28;20632;-63
2022/12/19 12:27:43;;;;;;;3.65;2.85;;;11.70;99.90;;;;;;5083694;28;20639;-66
2022/12/19 12:30:15;;;;;;;3.22;2.88;;;11.70;99.90;;;;;;5095071;28;20188;-63
2022/12/19 12:33:10;;;;;;;4.70;3.05;;;11.90;99.90;;;;;;5087899;28;20177;-63
2022/12/19 12:35:46;;;;;;;3.78;3.38;;;11.90;99.90;;;;;;5075659;28;20617;-63
2022/12/19 12:38:15;;;;;;;3.72;2.95;;;11.90;99.90;;;;;;5091442;28;20184;-63
2022/12/19 12:41:05;;;;;;;3.95;3.50;;;11.90;99.90;;;;;;5078931;28;20267;-63
2022/12/19 12:44:00;;;;;;;7.30;4.35;;;11.90;99.90;;;;;;5090936;28;20196;-62
2022/12/19 12:46:31;;;;;;;4.32;3.20;;;11.90;99.90;;;;;;5094193;28;20188;-63
2022/12/19 12:49:02;;;;;;;6.38;3.75;;;11.80;99.90;;;;;;5093135;28;20242;-63
2022/12/19 12:51:31;;;;;;;5.25;3.30;;;11.80;99.90;;;;;;5089931;28;20543;-62
2022/12/19 12:54:12;;;;;;;5.18;3.50;;;11.80;99.90;;;;;;5092108;28;20215;-63
2022/12/19 12:56:39;;;;;;;6.10;3.65;;;11.80;99.90;;;;;;5093994;28;20187;-63
2022/12/19 12:59:24;;;;;;;4.10;3.38;;;11.90;99.90;;;;;;5084889;28;20180;-64
2022/12/19 13:01:52;;;;;;;3.33;3.00;;;11.90;99.90;;;;;;5093428;28;20189;-63
2022/12/19 13:04:27;;;;;;;2.97;2.78;;;11.90;99.90;;;;;;5094496;28;20192;-63
2022/12/19 13:06:52;;;;;;;3.65;3.13;;;11.90;99.90;;;;;;5086479;28;20179;-62
2022/12/19 13:09:27;;;;;;;5.07;3.42;;;11.90;99.90;;;;;;5094117;28;20208;-64
2022/12/19 13:14:51;;;;;;;4.80;3.45;;;11.80;99.90;;;;;;5093944;28;21140;-63
2022/12/19 13:17:31;;;;;;;4.40;3.78;;;11.90;99.90;;;;;;5090991;28;20185;-61